createdAt,value
2023-04-25T00:01:37.179Z,13.40
2023-04-25T00:04:07.058Z,13.40
2023-04-25T00:06:37.132Z,13.30
2023-04-25T00:09:08.154Z,13.20
2023-04-25T00:11:39.004Z,13.20
2023-04-25T00:14:08.773Z,13.20
2023-04-25T00:16:36.879Z,13.20
2023-04-25T00:19:05.282Z,13.10
2023-04-25T00:21:34.206Z,13.10
2023-04-25T00:24:02.204Z,13.10
2023-04-25T00:26:30.215Z,13.00
2023-04-25T00:28:58.199Z,13.00
2023-04-25T00:31:27.650Z,12.90
2023-04-25T00:33:55.842Z,12.90
2023-04-25T00:36:24.005Z,12.80
2023-04-25T00:38:51.988Z,12.80
2023-04-25T00:41:24.309Z,12.80
2023-04-25T00:43:53.997Z,12.70
2023-04-25T00:46:22.190Z,12.70
2023-04-25T00:48:51.620Z,12.70
2023-04-25T00:51:23.145Z,12.70
2023-04-25T00:53:52.687Z,12.60
2023-04-25T00:56:21.561Z,12.60
2023-04-25T00:58:50.087Z,12.60
2023-04-25T01:01:18.790Z,12.60
2023-04-25T01:03:51.247Z,12.70
2023-04-25T01:06:20.813Z,12.70
2023-04-25T01:08:48.821Z,12.70
2023-04-25T01:11:17.052Z,12.60
2023-04-25T01:13:45.190Z,12.60
2023-04-25T01:16:13.305Z,12.60
2023-04-25T01:18:42.332Z,12.60
2023-04-25T01:21:14.906Z,12.50
2023-04-25T01:23:43.625Z,12.60
2023-04-25T01:26:13.273Z,12.50
2023-04-25T01:28:42.654Z,12.50
2023-04-25T01:31:11.433Z,12.50
2023-04-25T01:33:39.643Z,12.50
2023-04-25T01:36:08.396Z,12.50
2023-04-25T01:38:38.089Z,12.40
2023-04-25T01:41:08.196Z,12.40
2023-04-25T01:43:36.499Z,12.40
2023-04-25T01:46:04.754Z,12.40
2023-04-25T01:48:32.781Z,12.40
2023-04-25T01:51:00.823Z,12.40
2023-04-25T01:53:28.933Z,12.40
2023-04-25T01:55:58.263Z,12.30
2023-04-25T01:58:26.306Z,12.30
2023-04-25T02:00:54.549Z,12.30
2023-04-25T02:03:22.772Z,12.30
2023-04-25T02:05:50.882Z,12.30
2023-04-25T02:08:19.446Z,12.30
2023-04-25T02:10:47.465Z,12.30
2023-04-25T02:13:16.865Z,12.30
2023-04-25T02:15:45.028Z,12.20
2023-04-25T02:18:13.081Z,12.20
2023-04-25T02:20:41.077Z,12.20
2023-04-25T02:23:09.190Z,12.20
2023-04-25T02:25:37.194Z,12.10
2023-04-25T02:28:05.525Z,12.10
2023-04-25T02:30:36.258Z,12.20
2023-04-25T02:33:04.418Z,12.10
2023-04-25T02:35:32.415Z,12.10
2023-04-25T02:38:00.403Z,12.10
2023-04-25T02:40:28.501Z,12.10
2023-04-25T02:42:56.473Z,12.10
2023-04-25T02:45:24.449Z,12.10
2023-04-25T02:47:53.882Z,12.00
2023-04-25T02:50:22.204Z,12.00
2023-04-25T02:52:50.173Z,12.00
2023-04-25T02:55:18.297Z,12.00
2023-04-25T02:57:46.287Z,12.00
2023-04-25T03:00:16.368Z,12.00
2023-04-25T03:02:44.483Z,11.90
2023-04-25T03:05:13.862Z,11.90
2023-04-25T03:07:41.940Z,11.90
2023-04-25T03:10:10.418Z,11.90
2023-04-25T03:12:38.539Z,11.90
2023-04-25T03:15:07.638Z,11.80
2023-04-25T03:17:35.808Z,11.80
2023-04-25T03:20:06.272Z,11.80
2023-04-25T03:22:35.649Z,11.80
2023-04-25T03:25:03.798Z,11.80
2023-04-25T03:27:31.836Z,11.70
2023-04-25T03:29:59.879Z,11.70
2023-04-25T03:32:27.941Z,11.70
2023-04-25T03:34:56.103Z,11.70
2023-04-25T03:37:24.090Z,11.70
2023-04-25T03:39:53.461Z,11.60
2023-04-25T03:42:23.748Z,11.60
2023-04-25T03:44:52.086Z,11.60
2023-04-25T03:47:22.388Z,11.60
2023-04-25T03:49:52.727Z,11.60
2023-04-25T03:52:21.146Z,11.60
2023-04-25T03:54:49.118Z,11.60
2023-04-25T03:57:18.480Z,11.60
2023-04-25T03:59:46.465Z,11.50
2023-04-25T04:02:14.544Z,11.50
2023-04-25T04:04:45.147Z,11.50
2023-04-25T04:07:13.578Z,11.50
2023-04-25T04:09:41.608Z,11.40
2023-04-25T04:12:09.933Z,11.40
2023-04-25T04:14:39.561Z,11.40
2023-04-25T04:17:08.073Z,11.40
2023-04-25T04:19:36.183Z,11.30
2023-04-25T04:22:04.248Z,11.30
2023-04-25T04:24:32.262Z,11.20
2023-04-25T04:27:00.272Z,11.20
2023-04-25T04:29:28.248Z,11.20
2023-04-25T04:31:57.894Z,11.20
2023-04-25T04:34:26.717Z,11.20
2023-04-25T04:36:54.675Z,11.20
2023-04-25T04:39:23.207Z,11.20
2023-04-25T04:41:51.960Z,11.20
2023-04-25T04:44:19.935Z,11.20
2023-04-25T04:46:47.992Z,11.20
2023-04-25T04:49:17.440Z,11.20
2023-04-25T04:51:46.878Z,11.20
2023-04-25T04:54:15.032Z,11.10
2023-04-25T04:56:43.656Z,11.10
2023-04-25T04:59:12.025Z,11.10
2023-04-25T05:01:40.412Z,11.10
2023-04-25T05:04:08.607Z,11.10
2023-04-25T05:06:38.131Z,11.10
2023-04-25T05:09:06.392Z,11.10
2023-04-25T05:11:34.458Z,11.10
2023-04-25T05:14:02.542Z,11.10
2023-04-25T05:16:30.892Z,11.10
2023-04-25T05:18:58.968Z,11.10
2023-04-25T05:21:28.294Z,11.10
2023-04-25T05:23:57.750Z,11.10
2023-04-25T05:26:25.758Z,11.10
2023-04-25T05:28:54.090Z,11.10
2023-04-25T05:31:22.114Z,11.00
2023-04-25T05:33:50.337Z,11.00
2023-04-25T05:36:18.439Z,11.00
2023-04-25T05:38:49.067Z,10.90
2023-04-25T05:41:18.406Z,10.90
2023-04-25T05:43:50.128Z,10.90
2023-04-25T05:46:18.548Z,10.90
2023-04-25T05:48:48.291Z,10.90
2023-04-25T05:51:17.250Z,10.90
2023-04-25T05:53:45.262Z,10.90
2023-04-25T05:56:13.506Z,10.80
2023-04-25T05:58:42.849Z,10.80
2023-04-25T06:01:11.142Z,10.80
2023-04-25T06:03:39.784Z,10.80
2023-04-25T06:06:08.332Z,10.80
2023-04-25T06:08:36.537Z,10.70
2023-04-25T06:11:04.582Z,10.70
2023-04-25T06:13:32.607Z,10.80
2023-04-25T06:16:01.989Z,10.70
2023-04-25T06:18:30.030Z,10.80
2023-04-25T06:20:58.053Z,10.80
2023-04-25T06:23:26.134Z,10.90
2023-04-25T06:25:54.140Z,10.90
2023-04-25T06:28:25.620Z,11.00
2023-04-25T06:30:53.716Z,11.00
2023-04-25T06:33:23.276Z,11.00
2023-04-25T06:35:51.288Z,11.10
2023-04-25T06:38:19.262Z,11.10
2023-04-25T06:40:47.237Z,11.10
2023-04-25T06:43:15.283Z,11.20
2023-04-25T06:45:44.042Z,11.20
2023-04-25T06:48:12.759Z,11.30
2023-04-25T06:50:42.094Z,11.30
2023-04-25T06:53:12.494Z,11.30
2023-04-25T06:55:40.657Z,11.40
2023-04-25T06:58:09.201Z,11.40
2023-04-25T07:00:37.233Z,11.50
2023-04-25T07:03:05.604Z,11.50
2023-04-25T07:05:33.650Z,11.60
2023-04-25T07:08:03.982Z,11.50
2023-04-25T07:10:32.245Z,11.50
2023-04-25T07:13:00.303Z,11.50
2023-04-25T07:15:28.318Z,11.40
2023-04-25T07:17:56.414Z,11.50
2023-04-25T07:20:28.565Z,11.50
2023-04-25T07:22:56.657Z,11.60
2023-04-25T07:25:26.060Z,11.70
2023-04-25T07:27:54.047Z,11.80
2023-04-25T07:30:22.056Z,11.90
2023-04-25T07:32:50.163Z,11.90
2023-04-25T07:35:19.144Z,11.90
2023-04-25T07:37:47.408Z,11.80
2023-04-25T07:40:16.656Z,11.80
2023-04-25T07:42:46.120Z,11.80
2023-04-25T07:45:14.676Z,11.70
2023-04-25T07:47:42.796Z,11.70
2023-04-25T07:50:11.942Z,11.90
2023-04-25T07:52:39.954Z,12.00
2023-04-25T07:55:08.251Z,12.00
2023-04-25T07:57:36.634Z,12.10
2023-04-25T08:00:12.144Z,12.10
2023-04-25T08:02:40.279Z,12.20
2023-04-25T08:05:09.376Z,12.30
2023-04-25T08:07:41.713Z,12.30
2023-04-25T08:10:10.761Z,12.30
2023-04-25T08:12:38.742Z,12.30
2023-04-25T08:15:10.214Z,12.30
2023-04-25T08:17:40.391Z,12.40
2023-04-25T08:20:09.870Z,12.40
2023-04-25T08:22:40.821Z,12.50
2023-04-25T08:25:09.311Z,12.50
2023-04-25T08:27:37.347Z,12.60
2023-04-25T08:30:09.219Z,12.60
2023-04-25T08:32:39.790Z,12.70
2023-04-25T08:35:08.600Z,12.70
2023-04-25T08:37:37.795Z,12.80
2023-04-25T08:40:08.174Z,12.70
2023-04-25T08:42:36.837Z,12.70
2023-04-25T08:45:08.101Z,12.60
2023-04-25T08:47:40.743Z,12.60
2023-04-25T08:50:09.398Z,12.70
2023-04-25T08:52:39.884Z,12.70
2023-04-25T08:55:11.988Z,12.60
2023-04-25T08:57:42.204Z,12.60
2023-04-25T09:00:11.920Z,12.50
2023-04-25T09:02:41.599Z,12.60
2023-04-25T09:05:11.090Z,12.60
2023-04-25T09:07:39.101Z,12.60
2023-04-25T09:10:07.970Z,12.60
2023-04-25T09:12:37.695Z,12.50
2023-04-25T09:15:10.358Z,12.60
2023-04-25T09:17:45.407Z,12.60
2023-04-25T09:20:16.092Z,12.60
2023-04-25T09:22:44.212Z,12.60
2023-04-25T09:25:13.506Z,12.60
2023-04-25T09:27:53.014Z,12.60
2023-04-25T09:30:30.531Z,12.50
2023-04-25T09:33:06.797Z,12.60
2023-04-25T09:35:41.258Z,12.70
2023-04-25T09:38:13.942Z,12.80
2023-04-25T09:40:45.659Z,13.00
2023-04-25T09:43:22.308Z,13.10
2023-04-25T09:45:52.569Z,13.20
2023-04-25T09:48:23.480Z,13.20
2023-04-25T09:51:06.651Z,13.10
2023-04-25T09:53:35.325Z,13.00
2023-04-25T09:56:06.601Z,13.00
2023-04-25T09:58:35.252Z,13.00
2023-04-25T10:01:06.031Z,13.00
2023-04-25T10:03:36.340Z,13.00
2023-04-25T10:06:08.231Z,13.00
2023-04-25T10:08:37.903Z,13.10
2023-04-25T10:11:08.932Z,13.10
2023-04-25T10:13:38.201Z,13.20
2023-04-25T10:16:07.104Z,13.30
2023-04-25T10:18:38.440Z,13.50
2023-04-25T10:21:08.063Z,13.50
2023-04-25T10:23:37.966Z,13.60
2023-04-25T10:26:06.550Z,13.60
2023-04-25T10:29:00.463Z,13.50
2023-04-25T10:31:29.025Z,13.40
2023-04-25T10:33:58.875Z,13.50
2023-04-25T10:36:28.167Z,13.40
2023-04-25T10:38:56.319Z,13.30
2023-04-25T10:41:24.733Z,13.40
2023-04-25T10:44:02.250Z,13.30
2023-04-25T10:46:31.814Z,13.40
2023-04-25T10:49:02.532Z,13.50
2023-04-25T10:51:43.383Z,13.60
2023-04-25T10:54:21.164Z,13.60
2023-04-25T10:56:51.083Z,13.80
2023-04-25T10:59:21.347Z,13.90
2023-04-25T11:01:53.936Z,13.90
2023-04-25T11:04:24.611Z,14.00
2023-04-25T11:07:08.267Z,14.10
2023-04-25T11:09:37.113Z,14.10
2023-04-25T11:12:06.715Z,14.10
2023-04-25T11:14:35.068Z,14.10
2023-04-25T11:17:03.614Z,14.10
2023-04-25T11:19:33.273Z,14.10
2023-04-25T11:22:06.145Z,14.10
2023-04-25T11:24:37.696Z,14.10
2023-04-25T11:27:07.718Z,14.10
2023-04-25T11:29:37.102Z,14.20
2023-04-25T11:32:05.250Z,14.30
2023-04-25T11:34:36.689Z,14.30
2023-04-25T11:37:05.319Z,14.30
2023-04-25T11:39:33.362Z,14.30
2023-04-25T11:42:02.414Z,14.40
2023-04-25T11:44:32.846Z,14.40
2023-04-25T11:47:00.823Z,14.30
2023-04-25T11:49:36.635Z,14.30
2023-04-25T11:52:04.912Z,14.30
2023-04-25T11:54:32.864Z,14.30
2023-04-25T11:57:02.665Z,14.30
2023-04-25T11:59:31.008Z,14.30
2023-04-25T12:01:59.650Z,14.30
2023-04-25T12:04:27.886Z,14.10
2023-04-25T12:06:57.691Z,14.20
2023-04-25T12:09:31.424Z,14.10
2023-04-25T12:12:03.599Z,14.10
2023-04-25T12:14:33.318Z,14.10
2023-04-25T12:17:02.745Z,14.00
2023-04-25T12:19:35.495Z,14.00
2023-04-25T12:22:06.766Z,13.90
2023-04-25T12:24:38.981Z,13.80
2023-04-25T12:27:09.882Z,13.80
2023-04-25T12:29:49.597Z,13.80
2023-04-25T12:32:18.461Z,13.80
2023-04-25T12:34:47.041Z,13.70
2023-04-25T12:37:16.892Z,13.80
2023-04-25T12:39:45.299Z,13.70
2023-04-25T12:42:13.891Z,13.70
2023-04-25T12:44:42.626Z,13.70
2023-04-25T12:47:11.043Z,13.70
2023-04-25T12:49:40.370Z,13.70
2023-04-25T12:52:08.349Z,13.60
2023-04-25T12:54:37.687Z,13.50
2023-04-25T12:57:05.951Z,13.50
2023-04-25T12:59:33.948Z,13.40
2023-04-25T13:02:01.973Z,13.40
2023-04-25T13:04:30.131Z,13.30
2023-04-25T13:06:58.283Z,13.30
2023-04-25T13:09:26.330Z,13.30
2023-04-25T13:11:59.211Z,13.20
2023-04-25T13:14:28.054Z,13.10
2023-04-25T13:16:56.251Z,13.00
2023-04-25T13:19:24.314Z,13.10
2023-04-25T13:21:52.321Z,13.10
2023-04-25T13:24:20.453Z,13.10
2023-04-25T13:26:48.585Z,13.10
2023-04-25T13:29:17.992Z,13.10
2023-04-25T13:31:46.255Z,13.10
2023-04-25T13:34:14.504Z,13.20
2023-04-25T13:36:42.554Z,13.20
2023-04-25T13:39:10.590Z,13.30
2023-04-25T13:41:41.415Z,13.30
2023-04-25T13:44:09.407Z,13.30
2023-04-25T13:49:12.709Z,13.50
2023-04-25T13:51:43.198Z,13.50
2023-04-25T13:54:11.412Z,13.60
2023-04-25T13:56:39.498Z,13.60
2023-04-25T13:59:07.929Z,13.70
2023-04-25T14:01:36.654Z,13.70
2023-04-25T14:04:06.246Z,13.70
2023-04-25T14:06:34.489Z,13.70
2023-04-25T14:09:02.636Z,13.60
2023-04-25T14:11:30.635Z,13.50
2023-04-25T14:13:58.665Z,13.60
2023-04-25T14:16:26.978Z,13.60
2023-04-25T14:18:55.508Z,13.60
2023-04-25T14:21:24.869Z,13.50
2023-04-25T14:23:53.324Z,13.40
2023-04-25T14:26:21.652Z,13.40
2023-04-25T14:28:49.919Z,13.40
2023-04-25T14:31:20.945Z,13.40
2023-04-25T14:33:49.094Z,13.30
2023-04-25T14:36:17.154Z,13.20
2023-04-25T14:38:46.652Z,13.20
2023-04-25T14:41:14.617Z,13.20
2023-04-25T14:43:42.644Z,13.10
2023-04-25T14:46:11.863Z,13.10
2023-04-25T14:48:40.231Z,13.00
2023-04-25T14:51:08.315Z,13.00
2023-04-25T14:53:37.091Z,13.00
2023-04-25T14:56:08.116Z,13.00
2023-04-25T14:58:37.847Z,13.10
2023-04-25T15:01:06.245Z,13.00
2023-04-25T15:03:35.672Z,13.00
2023-04-25T15:06:04.262Z,13.00
2023-04-25T15:08:32.285Z,12.90
2023-04-25T15:11:00.382Z,13.00
2023-04-25T15:13:29.966Z,13.00
2023-04-25T15:16:00.750Z,13.00
2023-04-25T15:18:28.821Z,13.00
2023-04-25T15:20:56.826Z,13.00
2023-04-25T15:23:25.974Z,12.90
2023-04-25T15:25:55.165Z,12.90
2023-04-25T15:28:23.262Z,12.90
2023-04-25T15:30:52.751Z,12.90
2023-04-25T15:33:20.740Z,12.90
2023-04-25T15:35:48.724Z,12.90
2023-04-25T15:38:16.682Z,12.90
2023-04-25T15:40:45.231Z,12.90
2023-04-25T15:43:16.156Z,12.90
2023-04-25T15:45:45.518Z,12.90
2023-04-25T15:48:16.083Z,12.90
2023-04-25T15:50:44.154Z,13.00
2023-04-25T15:53:12.339Z,13.00
2023-04-25T15:55:40.445Z,13.00
2023-04-25T15:58:10.649Z,13.00
2023-04-25T16:00:40.401Z,13.10
2023-04-25T16:03:09.568Z,13.10
2023-04-25T16:05:39.469Z,13.10
2023-04-25T16:08:07.510Z,13.10
2023-04-25T16:10:35.531Z,13.10
2023-04-25T16:13:05.929Z,13.00
2023-04-25T16:15:35.527Z,13.00
2023-04-25T16:18:04.166Z,13.00
2023-04-25T16:20:32.423Z,13.00
2023-04-25T16:23:02.067Z,13.00
2023-04-25T16:25:30.063Z,13.00
2023-04-25T16:28:01.300Z,13.00
2023-04-25T16:30:29.500Z,13.00
2023-04-25T16:32:58.144Z,13.00
2023-04-25T16:35:30.427Z,13.00
2023-04-25T16:37:58.579Z,12.90
2023-04-25T16:40:28.399Z,12.90
2023-04-25T16:42:56.413Z,12.90
2023-04-25T16:45:24.447Z,12.90
2023-04-25T16:47:52.499Z,12.90
2023-04-25T16:50:20.808Z,12.80
2023-04-25T16:52:48.856Z,12.80
2023-04-25T16:55:19.529Z,12.80
2023-04-25T16:57:49.140Z,12.70
2023-04-25T17:00:20.739Z,12.70
2023-04-25T17:02:49.075Z,12.60
2023-04-25T17:05:17.134Z,12.60
2023-04-25T17:07:45.131Z,12.60
2023-04-25T17:10:13.121Z,12.60
2023-04-25T17:12:41.136Z,12.60
2023-04-25T17:15:12.675Z,12.50
2023-04-25T17:17:40.755Z,12.50
2023-04-25T17:20:09.909Z,12.40
2023-04-25T17:22:38.594Z,12.40
2023-04-25T17:25:08.511Z,12.40
2023-04-25T17:27:37.147Z,12.30
2023-04-25T17:30:06.131Z,12.30
2023-04-25T17:32:35.825Z,12.20
2023-04-25T17:35:03.852Z,12.10
2023-04-25T17:37:31.865Z,12.00
2023-04-25T17:39:59.952Z,11.90
2023-04-25T17:42:30.955Z,11.90
2023-04-25T17:45:00.534Z,11.80
2023-04-25T17:47:28.712Z,11.80
2023-04-25T17:49:58.862Z,11.70
2023-04-25T17:52:29.883Z,11.70
2023-04-25T17:55:00.795Z,11.60
2023-04-25T17:57:29.336Z,11.60
2023-04-25T17:59:57.839Z,11.50
2023-04-25T18:02:26.992Z,11.40
2023-04-25T18:04:55.519Z,11.40
2023-04-25T18:07:24.878Z,11.40
2023-04-25T18:09:52.921Z,11.30
2023-04-25T18:12:21.461Z,11.30
2023-04-25T18:14:49.476Z,11.20
2023-04-25T18:17:17.429Z,11.20
2023-04-25T18:19:45.462Z,11.10
2023-04-25T18:22:13.966Z,11.10
2023-04-25T18:24:44.681Z,11.00
2023-04-25T18:27:12.682Z,11.00
2023-04-25T18:29:42.391Z,11.00
2023-04-25T18:32:11.040Z,10.90
2023-04-25T18:34:41.486Z,10.90
2023-04-25T18:37:09.512Z,10.80
2023-04-25T18:39:37.518Z,10.80
2023-04-25T18:42:09.708Z,10.80
2023-04-25T18:44:40.038Z,10.70
2023-04-25T18:47:08.874Z,10.60
2023-04-25T18:49:38.579Z,10.60
2023-04-25T18:52:08.548Z,10.50
2023-04-25T18:54:39.986Z,10.50
2023-04-25T18:57:09.486Z,10.40
2023-04-25T18:59:37.519Z,10.40
2023-04-25T19:02:05.777Z,10.40
2023-04-25T19:04:34.293Z,10.30
2023-04-25T19:07:03.535Z,10.30
2023-04-25T19:09:31.572Z,10.20
2023-04-25T19:11:59.696Z,10.20
2023-04-25T19:14:29.592Z,10.10
2023-04-25T19:16:59.207Z,10.10
2023-04-25T19:19:28.221Z,10.10
2023-04-25T19:21:56.632Z,10.10
2023-04-25T19:24:24.708Z,10.10
2023-04-25T19:26:52.685Z,10.10
2023-04-25T19:29:20.667Z,10.00
2023-04-25T19:31:51.555Z,10.00
2023-04-25T19:34:19.541Z,10.00
2023-04-25T19:36:48.819Z,10.00
2023-04-25T19:39:16.805Z,9.90
2023-04-25T19:41:44.855Z,9.90
2023-04-25T19:44:13.036Z,9.90
2023-04-25T19:46:42.116Z,9.80
2023-04-25T19:49:12.054Z,9.80
2023-04-25T19:51:42.407Z,9.80
2023-04-25T19:54:10.489Z,9.70
2023-04-25T19:56:41.364Z,9.70
2023-04-25T19:59:09.375Z,9.60
2023-04-25T20:01:37.479Z,9.60
2023-04-25T20:04:05.974Z,9.50
2023-04-25T20:06:35.581Z,9.50
2023-04-25T20:09:03.836Z,9.40
2023-04-25T20:11:31.935Z,9.30
2023-04-25T20:13:59.959Z,9.30
2023-04-25T20:16:28.154Z,9.20
2023-04-25T20:18:56.434Z,9.30
2023-04-25T20:21:24.901Z,9.20
2023-04-25T20:23:54.297Z,9.20
2023-04-25T20:26:23.054Z,9.20
2023-04-25T20:28:51.809Z,9.10
2023-04-25T20:31:20.856Z,9.10
2023-04-25T20:33:48.963Z,9.10
2023-04-25T20:36:17.979Z,9.10
2023-04-25T20:38:46.205Z,9.20
2023-04-25T20:41:17.133Z,9.20
2023-04-25T20:43:45.957Z,9.10
2023-04-25T20:46:15.915Z,9.10
2023-04-25T20:48:44.442Z,9.00
2023-04-25T20:51:12.843Z,9.00
2023-04-25T20:53:40.872Z,8.90
2023-04-25T20:56:10.848Z,8.90
2023-04-25T20:58:40.614Z,8.80
2023-04-25T21:01:08.900Z,8.80
2023-04-25T21:03:40.129Z,8.70
2023-04-25T21:06:08.696Z,8.60
2023-04-25T21:08:37.290Z,8.60
2023-04-25T21:11:05.262Z,8.60
2023-04-25T21:13:34.315Z,8.60
2023-04-25T21:16:04.057Z,8.50
2023-04-25T21:18:32.119Z,8.50
2023-04-25T21:21:01.181Z,8.50
2023-04-25T21:23:29.199Z,8.50
2023-04-25T21:25:57.213Z,8.50
2023-04-25T21:28:25.326Z,8.50
2023-04-25T21:30:53.555Z,8.40
2023-04-25T21:33:23.079Z,8.40
2023-04-25T21:35:51.087Z,8.40
2023-04-25T21:38:19.757Z,8.40
2023-04-25T21:40:47.762Z,8.40
2023-04-25T21:43:15.751Z,8.40
2023-04-25T21:46:06.381Z,8.40
2023-04-25T21:48:33.059Z,8.40
2023-04-25T21:51:01.248Z,8.40
2023-04-25T21:53:29.310Z,8.40
2023-04-25T21:55:57.300Z,8.30
2023-04-25T21:58:27.976Z,8.30
2023-04-25T22:00:56.232Z,8.30
2023-04-25T22:03:26.386Z,8.40
2023-04-25T22:05:59.415Z,8.40
2023-04-25T22:08:27.411Z,8.40
2023-04-25T22:10:56.145Z,8.30
2023-04-25T22:13:24.258Z,8.40
2023-04-25T22:15:52.847Z,8.30
2023-04-25T22:18:22.170Z,8.30
2023-04-25T22:20:50.305Z,8.40
2023-04-25T22:23:22.747Z,8.40
2023-04-25T22:25:50.707Z,8.30
2023-04-25T22:28:18.732Z,8.30
2023-04-25T22:30:47.023Z,8.30
2023-04-25T22:33:15.815Z,8.30
2023-04-25T22:35:43.794Z,8.30
2023-04-25T22:38:11.753Z,8.30
2023-04-25T22:40:41.134Z,8.30
2023-04-25T22:43:09.114Z,8.30
2023-04-25T22:45:37.097Z,8.30
2023-04-25T22:48:05.663Z,8.30
2023-04-25T22:50:33.694Z,8.30
2023-04-25T22:53:01.696Z,8.30
2023-04-25T22:55:30.027Z,8.30
2023-04-25T22:57:59.428Z,8.30
2023-04-25T23:00:30.217Z,8.30
2023-04-25T23:03:00.162Z,8.30
2023-04-25T23:05:28.297Z,8.30
2023-04-25T23:07:56.253Z,8.30
2023-04-25T23:10:24.493Z,8.30
2023-04-25T23:12:53.822Z,8.40
2023-04-25T23:15:23.151Z,8.40
2023-04-25T23:17:51.499Z,8.40
2023-04-25T23:20:21.029Z,8.40
2023-04-25T23:22:49.625Z,8.40
2023-04-25T23:25:20.717Z,8.40
2023-04-25T23:27:49.745Z,8.40
2023-04-25T23:30:18.010Z,8.40
2023-04-25T23:32:47.461Z,8.40
2023-04-25T23:35:15.694Z,8.30
2023-04-25T23:37:43.656Z,8.40
2023-04-25T23:40:12.906Z,8.40
2023-04-25T23:42:42.423Z,8.40
2023-04-25T23:45:11.224Z,8.40
2023-04-25T23:47:39.321Z,8.40
2023-04-25T23:50:09.906Z,8.30
2023-04-25T23:52:38.323Z,8.30
2023-04-25T23:55:07.982Z,8.30
2023-04-25T23:57:39.085Z,8.30
